createdAt,value
2023-02-18T00:02:16.591Z,556.80
2023-02-18T00:05:19.807Z,570.38
2023-02-18T00:08:23.040Z,552.17
2023-02-18T00:11:26.051Z,561.30
2023-02-18T00:14:30.411Z,561.05
2023-02-18T00:17:33.591Z,559.97
2023-02-18T00:20:36.915Z,561.17
2023-02-18T00:23:42.485Z,552.70
2023-02-18T00:26:47.473Z,540.95
2023-02-18T00:29:51.710Z,540.97
2023-02-18T00:32:54.544Z,539.42
2023-02-18T00:36:03.738Z,529.28
2023-02-18T00:39:09.288Z,531.40
2023-02-18T00:42:12.260Z,529.88
2023-02-18T00:45:16.686Z,532.63
2023-02-18T00:48:20.309Z,527.70
2023-02-18T00:51:25.280Z,522.00
2023-02-18T00:54:28.390Z,521.63
2023-02-18T00:57:31.247Z,522.55
2023-02-18T01:00:35.869Z,517.70
2023-02-18T01:03:40.631Z,510.70
2023-02-18T01:06:44.175Z,503.35
2023-02-18T01:09:46.986Z,497.75
2023-02-18T01:12:50.183Z,503.58
2023-02-18T01:15:54.826Z,509.13
2023-02-18T01:18:57.778Z,496.25
2023-02-18T01:22:02.303Z,495.42
2023-02-18T01:25:05.393Z,488.95
2023-02-18T01:28:09.884Z,482.30
2023-02-18T01:31:14.965Z,492.23
2023-02-18T01:34:18.098Z,483.33
2023-02-18T01:37:20.985Z,472.30
2023-02-18T01:40:25.760Z,463.95
2023-02-18T01:43:29.339Z,468.42
2023-02-18T01:46:33.520Z,463.48
2023-02-18T01:49:40.171Z,458.35
2023-02-18T01:52:43.039Z,452.00
2023-02-18T01:55:47.396Z,445.25
2023-02-18T01:58:51.302Z,439.92
2023-02-18T02:01:56.951Z,437.55
2023-02-18T02:05:00.032Z,430.85
2023-02-18T02:08:04.298Z,431.25
2023-02-18T02:11:20.144Z,417.27
2023-02-18T02:14:36.094Z,435.52
2023-02-18T02:17:51.315Z,398.33
2023-02-18T02:21:20.993Z,408.42
2023-02-18T02:25:03.724Z,413.08
2023-02-18T02:28:43.470Z,395.88
2023-02-18T02:32:16.095Z,400.90
2023-02-18T02:35:24.922Z,396.02
2023-02-18T02:38:35.063Z,383.88
2023-02-18T02:41:47.716Z,384.15
2023-02-18T02:44:57.136Z,360.23
2023-02-18T02:48:10.304Z,335.10
2023-02-18T02:51:19.850Z,337.92
2023-02-18T02:54:25.386Z,336.70
2023-02-18T02:57:48.309Z,338.02
2023-02-18T03:01:14.769Z,331.08
2023-02-18T03:04:41.615Z,335.75
2023-02-18T03:08:05.584Z,333.00
2023-02-18T03:11:12.221Z,327.80
2023-02-18T03:14:22.420Z,332.50
2023-02-18T03:17:28.873Z,328.30
2023-02-18T03:20:37.655Z,319.20
2023-02-18T03:23:48.895Z,304.70
2023-02-18T03:26:56.016Z,302.00
2023-02-18T03:30:03.903Z,309.17
2023-02-18T03:33:10.580Z,299.63
2023-02-18T03:36:14.399Z,294.40
2023-02-18T03:39:21.183Z,292.90
2023-02-18T03:42:27.834Z,287.80
2023-02-18T03:45:30.916Z,283.23
2023-02-18T03:48:34.408Z,283.70
2023-02-18T03:51:37.255Z,282.35
2023-02-18T03:54:41.439Z,277.40
2023-02-18T03:57:44.774Z,274.15
2023-02-18T04:00:47.548Z,272.50
2023-02-18T04:03:50.399Z,272.98
2023-02-18T04:06:53.263Z,253.82
2023-02-18T04:09:57.483Z,260.60
2023-02-18T04:13:00.698Z,263.80
2023-02-18T04:16:03.522Z,260.55
2023-02-18T04:19:06.898Z,254.38
2023-02-18T04:22:09.746Z,257.60
2023-02-18T04:25:14.030Z,254.00
2023-02-18T04:28:17.947Z,248.63
2023-02-18T04:31:21.346Z,258.30
2023-02-18T04:34:24.351Z,254.95
2023-02-18T04:37:27.279Z,247.93
2023-02-18T04:40:31.475Z,251.77
2023-02-18T04:43:34.336Z,243.98
2023-02-18T04:46:37.187Z,234.93
2023-02-18T04:49:40.107Z,234.45
2023-02-18T04:52:42.951Z,236.13
2023-02-18T04:55:50.875Z,243.50
2023-02-18T04:58:53.815Z,231.30
2023-02-18T05:01:56.695Z,222.32
2023-02-18T05:04:59.836Z,235.05
2023-02-18T05:08:02.936Z,222.00
2023-02-18T05:11:08.669Z,222.82
2023-02-18T05:14:12.299Z,221.18
2023-02-18T05:17:15.123Z,218.73
2023-02-18T05:20:18.296Z,213.35
2023-02-18T05:23:21.473Z,214.05
2023-02-18T05:26:25.829Z,217.55
2023-02-18T05:29:28.756Z,212.18
2023-02-18T05:32:31.630Z,213.23
2023-02-18T05:35:34.652Z,213.00
2023-02-18T05:38:37.583Z,206.02
2023-02-18T05:41:41.752Z,205.15
2023-02-18T05:44:44.638Z,198.20
2023-02-18T05:47:47.587Z,207.80
2023-02-18T05:50:53.923Z,210.35
2023-02-18T05:53:56.814Z,196.38
2023-02-18T05:57:01.176Z,195.48
2023-02-18T06:00:05.231Z,201.07
2023-02-18T06:03:08.038Z,194.02
2023-02-18T06:06:11.372Z,190.55
2023-02-18T06:09:14.702Z,188.63
2023-02-18T06:12:18.932Z,191.45
2023-02-18T06:15:21.906Z,187.07
2023-02-18T06:18:25.280Z,192.88
2023-02-18T06:21:28.399Z,179.85
2023-02-18T06:24:31.331Z,183.48
2023-02-18T06:27:35.524Z,180.38
2023-02-18T06:30:38.874Z,180.93
2023-02-18T06:33:41.834Z,176.20
2023-02-18T06:36:44.668Z,183.10
2023-02-18T06:39:47.525Z,174.48
2023-02-18T06:42:51.771Z,175.35
2023-02-18T06:45:54.694Z,196.25
2023-02-18T06:48:57.571Z,176.18
2023-02-18T06:52:00.533Z,172.07
2023-02-18T06:55:03.419Z,167.88
2023-02-18T06:58:07.701Z,172.35
2023-02-18T07:01:10.624Z,169.05
2023-02-18T07:04:13.549Z,168.05
2023-02-18T07:07:16.498Z,170.23
2023-02-18T07:10:19.852Z,159.00
2023-02-18T07:13:24.140Z,165.05
2023-02-18T07:16:27.061Z,162.60
2023-02-18T07:19:30.014Z,163.85
2023-02-18T07:22:33.169Z,156.93
2023-02-18T07:25:36.041Z,156.75
2023-02-18T07:28:41.264Z,152.52
2023-02-18T07:31:44.272Z,150.10
2023-02-18T07:34:47.261Z,157.52
2023-02-18T07:37:51.474Z,156.13
2023-02-18T07:40:55.473Z,151.43
2023-02-18T07:44:00.217Z,144.27
2023-02-18T07:47:03.251Z,137.18
2023-02-18T07:50:07.607Z,95.20
2023-02-18T07:53:12.479Z,64.60
2023-02-18T07:56:15.631Z,66.60
2023-02-18T07:59:20.028Z,73.25
2023-02-18T08:02:24.901Z,77.93
2023-02-18T08:05:27.908Z,82.30
2023-02-18T08:08:32.289Z,73.10
2023-02-18T08:11:36.088Z,77.82
2023-02-18T08:14:40.812Z,71.78
2023-02-18T08:17:43.658Z,71.85
2023-02-18T08:20:47.812Z,75.03
2023-02-18T08:23:50.818Z,72.68
2023-02-18T08:27:00.375Z,70.53
2023-02-18T08:30:06.638Z,71.22
2023-02-18T08:33:09.653Z,69.78
2023-02-18T08:36:12.537Z,70.28
2023-02-18T08:39:15.419Z,63.00
2023-02-18T08:42:18.366Z,67.05
2023-02-18T08:45:23.723Z,67.85
2023-02-18T08:48:27.376Z,69.30
2023-02-18T08:51:31.445Z,63.05
2023-02-18T08:54:34.400Z,66.40
2023-02-18T08:57:37.326Z,64.57
2023-02-18T09:00:43.059Z,68.22
2023-02-18T09:03:46.328Z,61.97
2023-02-18T09:06:50.078Z,63.35
2023-02-18T09:09:53.484Z,58.58
2023-02-18T09:12:56.367Z,62.15
2023-02-18T09:16:03.458Z,59.70
2023-02-18T09:19:06.524Z,60.95
2023-02-18T09:22:09.550Z,63.75
2023-02-18T09:25:12.460Z,58.97
2023-02-18T09:28:15.382Z,61.13
2023-02-18T09:31:21.605Z,59.22
2023-02-18T09:34:24.524Z,57.28
2023-02-18T09:37:27.409Z,57.53
2023-02-18T09:40:33.355Z,57.88
2023-02-18T09:43:41.653Z,60.80
2023-02-18T09:46:51.453Z,61.63
2023-02-18T09:49:57.799Z,58.67
2023-02-18T09:53:01.738Z,55.95
2023-02-18T09:56:04.928Z,59.63
2023-02-18T09:59:14.403Z,56.95
2023-02-18T10:02:20.937Z,55.40
2023-02-18T10:05:25.559Z,53.53
2023-02-18T10:08:30.613Z,55.03
2023-02-18T10:11:38.958Z,53.85
2023-02-18T10:14:42.281Z,55.63
2023-02-18T10:17:47.977Z,53.50
2023-02-18T10:20:52.882Z,53.40
2023-02-18T10:24:00.770Z,50.38
2023-02-18T10:27:06.645Z,50.30
2023-02-18T10:30:23.820Z,50.53
2023-02-18T10:33:36.662Z,54.40
2023-02-18T10:36:46.257Z,51.92
2023-02-18T10:40:04.562Z,57.33
2023-02-18T10:43:13.899Z,53.70
2023-02-18T10:46:25.615Z,53.80
2023-02-18T10:49:48.339Z,52.70
2023-02-18T10:52:53.716Z,50.22
2023-02-18T10:55:56.859Z,51.10
2023-02-18T10:59:06.759Z,51.60
2023-02-18T11:02:19.005Z,50.08
2023-02-18T11:05:26.805Z,51.33
2023-02-18T11:08:40.280Z,51.88
2023-02-18T11:11:45.706Z,50.42
2023-02-18T11:15:04.596Z,49.50
2023-02-18T11:18:23.618Z,47.47
2023-02-18T11:21:37.742Z,49.13
2023-02-18T11:24:40.962Z,48.45
2023-02-18T11:27:47.393Z,49.25
2023-02-18T11:30:55.196Z,46.38
2023-02-18T11:34:00.931Z,47.47
2023-02-18T11:37:13.180Z,46.90
2023-02-18T11:40:24.149Z,46.30
2023-02-18T11:43:31.800Z,48.83
2023-02-18T11:46:35.147Z,46.78
2023-02-18T11:49:38.047Z,45.42
2023-02-18T11:52:43.688Z,44.78
2023-02-18T11:55:56.343Z,42.05
2023-02-18T11:59:00.027Z,45.83
2023-02-18T12:02:23.443Z,42.50
2023-02-18T12:05:28.758Z,44.17
2023-02-18T12:08:39.999Z,44.67
2023-02-18T12:11:47.403Z,47.60
2023-02-18T12:14:52.996Z,42.65
2023-02-18T12:18:22.610Z,41.00
2023-02-18T12:21:45.431Z,43.00
2023-02-18T12:25:03.239Z,42.53
2023-02-18T12:28:23.548Z,40.90
2023-02-18T12:31:45.943Z,42.78
2023-02-18T12:35:04.424Z,41.92
2023-02-18T12:38:38.473Z,40.45
2023-02-18T12:42:14.782Z,41.25
2023-02-18T12:45:38.108Z,38.30
2023-02-18T12:48:54.568Z,40.28
2023-02-18T12:52:13.427Z,43.20
2023-02-18T12:55:32.036Z,39.97
2023-02-18T12:58:48.122Z,40.35
2023-02-18T13:02:03.322Z,36.53
2023-02-18T13:05:13.467Z,41.38
2023-02-18T13:08:32.403Z,39.33
2023-02-18T13:11:45.215Z,40.08
2023-02-18T13:14:57.205Z,38.50
2023-02-18T13:18:04.468Z,39.88
2023-02-18T13:21:09.688Z,40.85
2023-02-18T13:24:15.739Z,38.38
2023-02-18T13:27:27.309Z,37.13
2023-02-18T13:30:39.682Z,37.03
2023-02-18T13:33:48.292Z,38.10
2023-02-18T13:37:03.045Z,35.83
2023-02-18T13:40:15.112Z,39.15
2023-02-18T13:43:21.068Z,37.00
2023-02-18T13:46:26.093Z,36.60
2023-02-18T13:49:35.429Z,37.95
2023-02-18T13:52:38.351Z,35.53
2023-02-18T13:55:47.014Z,35.75
2023-02-18T13:58:52.570Z,34.20
2023-02-18T14:01:56.886Z,34.67
2023-02-18T14:05:20.821Z,35.85
2023-02-18T14:08:33.013Z,35.38
2023-02-18T14:11:41.954Z,35.80
2023-02-18T14:14:45.251Z,37.70
2023-02-18T14:17:51.620Z,31.58
2023-02-18T14:21:06.446Z,34.20
2023-02-18T14:24:12.836Z,33.00
2023-02-18T14:27:17.606Z,32.28
2023-02-18T14:30:28.427Z,37.03
2023-02-18T14:33:35.560Z,34.33
2023-02-18T14:36:47.614Z,37.47
2023-02-18T14:40:04.431Z,33.78
2023-02-18T14:43:13.919Z,33.90
2023-02-18T14:46:27.473Z,32.30
2023-02-18T14:49:45.714Z,32.25
2023-02-18T14:52:51.506Z,33.53
2023-02-18T14:55:59.407Z,33.78
2023-02-18T14:59:04.212Z,33.47
2023-02-18T15:02:19.434Z,32.42
2023-02-18T15:05:26.074Z,37.65
2023-02-18T15:08:39.701Z,35.83
2023-02-18T15:11:46.937Z,33.88
2023-02-18T15:14:52.191Z,33.42
2023-02-18T15:17:56.206Z,32.38
2023-02-18T15:21:02.063Z,31.95
2023-02-18T15:24:09.863Z,32.80
2023-02-18T15:27:15.571Z,34.75
2023-02-18T15:30:22.768Z,37.70
2023-02-18T15:33:26.132Z,34.90
2023-02-18T15:36:30.444Z,31.60
2023-02-18T15:39:34.051Z,36.22
2023-02-18T15:42:44.999Z,42.88
2023-02-18T15:45:51.032Z,43.70
2023-02-18T15:48:55.464Z,42.40
2023-02-18T15:52:03.255Z,40.28
2023-02-18T15:55:13.711Z,33.38
2023-02-18T15:58:19.720Z,37.13
2023-02-18T16:01:29.096Z,39.97
2023-02-18T16:04:35.160Z,40.50
2023-02-18T16:07:52.066Z,37.38
2023-02-18T16:10:57.545Z,38.00
2023-02-18T16:14:00.506Z,38.03
2023-02-18T16:17:10.871Z,36.38
2023-02-18T16:20:24.583Z,36.10
2023-02-18T16:23:36.288Z,36.05
2023-02-18T16:26:44.688Z,34.00
2023-02-18T16:29:52.132Z,37.20
2023-02-18T16:32:55.129Z,36.67
2023-02-18T16:35:58.004Z,36.50
2023-02-18T16:39:03.354Z,36.22
2023-02-18T16:42:09.785Z,36.00
2023-02-18T16:45:13.603Z,37.22
2023-02-18T16:48:20.606Z,34.13
2023-02-18T16:51:27.629Z,40.30
2023-02-18T16:54:31.894Z,35.80
2023-02-18T16:57:34.830Z,35.65
2023-02-18T17:00:38.471Z,47.15
2023-02-18T17:03:41.449Z,40.50
2023-02-18T17:06:45.205Z,36.88
2023-02-18T17:09:49.440Z,39.72
2023-02-18T17:12:52.404Z,39.40
2023-02-18T17:15:58.385Z,28.67
2023-02-18T17:19:01.288Z,31.13
2023-02-18T17:22:04.240Z,36.70
2023-02-18T17:25:14.059Z,34.83
2023-02-18T17:28:19.185Z,30.52
2023-02-18T17:31:26.085Z,33.25
2023-02-18T17:34:32.658Z,28.67
2023-02-18T17:37:35.668Z,31.50
2023-02-18T17:40:40.252Z,27.73
2023-02-18T17:43:43.546Z,41.63
2023-02-18T17:46:46.722Z,32.40
2023-02-18T17:49:49.511Z,30.85
2023-02-18T17:52:52.551Z,31.70
2023-02-18T17:55:56.776Z,29.35
2023-02-18T17:58:59.695Z,29.55
2023-02-18T18:02:02.546Z,31.17
2023-02-18T18:05:05.763Z,31.02
2023-02-18T18:08:09.892Z,32.67
2023-02-18T18:11:17.161Z,33.13
2023-02-18T18:14:20.006Z,35.88
2023-02-18T18:17:22.853Z,29.80
2023-02-18T18:20:27.579Z,29.98
2023-02-18T18:23:30.480Z,32.00
2023-02-18T18:26:34.705Z,35.47
2023-02-18T18:29:37.510Z,31.90
2023-02-18T18:32:40.402Z,35.33
2023-02-18T18:35:45.859Z,30.77
2023-02-18T18:38:48.844Z,33.25
2023-02-18T18:41:53.600Z,37.20
2023-02-18T18:44:56.510Z,33.95
2023-02-18T18:47:59.582Z,35.10
2023-02-18T18:51:02.493Z,35.40
2023-02-18T18:54:05.830Z,30.75
2023-02-18T18:57:10.043Z,36.05
2023-02-18T19:00:14.234Z,33.05
2023-02-18T19:03:17.900Z,31.27
2023-02-18T19:06:22.014Z,34.20
2023-02-18T19:09:25.070Z,32.83
2023-02-18T19:12:29.327Z,31.35
2023-02-18T19:15:32.716Z,33.08
2023-02-18T19:18:36.049Z,34.20
2023-02-18T19:21:40.043Z,30.85
2023-02-18T19:24:42.918Z,35.10
2023-02-18T19:27:48.886Z,32.42
2023-02-18T19:30:51.900Z,32.38
2023-02-18T19:33:55.562Z,30.20
2023-02-18T19:36:58.481Z,33.50
2023-02-18T19:40:01.531Z,34.10
2023-02-18T19:43:06.667Z,33.35
2023-02-18T19:46:10.279Z,32.80
2023-02-18T19:49:13.237Z,38.33
2023-02-18T19:52:16.094Z,32.13
2023-02-18T19:55:19.138Z,31.70
2023-02-18T19:58:23.390Z,32.53
2023-02-18T20:01:26.751Z,31.23
2023-02-18T20:04:29.933Z,31.88
2023-02-18T20:07:32.849Z,34.85
2023-02-18T20:10:36.123Z,32.17
2023-02-18T20:13:40.381Z,32.97
2023-02-18T20:16:43.239Z,33.25
2023-02-18T20:19:46.236Z,36.08
2023-02-18T20:22:49.087Z,38.15
2023-02-18T20:25:52.052Z,35.95
2023-02-18T20:28:56.579Z,34.25
2023-02-18T20:31:59.478Z,35.08
2023-02-18T20:35:02.351Z,35.72
2023-02-18T20:38:05.238Z,35.08
2023-02-18T20:41:09.647Z,36.35
2023-02-18T20:44:15.929Z,34.75
2023-02-18T20:47:19.268Z,34.05
2023-02-18T20:50:22.213Z,36.60
2023-02-18T20:53:25.067Z,38.17
2023-02-18T20:56:27.871Z,35.75
2023-02-18T20:59:33.390Z,35.95
2023-02-18T21:02:36.453Z,36.40
2023-02-18T21:05:39.277Z,36.00
2023-02-18T21:08:43.301Z,40.30
2023-02-18T21:11:46.878Z,37.78
2023-02-18T21:14:51.114Z,34.58
2023-02-18T21:17:53.894Z,35.45
2023-02-18T21:20:56.762Z,37.92
2023-02-18T21:23:59.655Z,41.15
2023-02-18T21:27:02.554Z,38.72
2023-02-18T21:30:09.176Z,36.80
2023-02-18T21:33:12.833Z,36.95
2023-02-18T21:36:16.207Z,36.58
2023-02-18T21:39:19.250Z,36.67
2023-02-18T21:42:22.296Z,36.67
2023-02-18T21:45:27.526Z,38.17
2023-02-18T21:48:48.243Z,38.75
2023-02-18T21:52:08.141Z,35.72
2023-02-18T21:55:11.530Z,35.45
2023-02-18T21:58:14.689Z,37.40
2023-02-18T22:01:18.988Z,39.45
2023-02-18T22:04:22.379Z,38.20
2023-02-18T22:07:27.344Z,36.92
2023-02-18T22:10:30.286Z,36.60
2023-02-18T22:13:33.213Z,36.38
2023-02-18T22:16:37.688Z,35.13
2023-02-18T22:19:41.032Z,35.65
2023-02-18T22:22:43.842Z,31.67
2023-02-18T22:25:47.937Z,33.85
2023-02-18T22:28:54.505Z,38.03
2023-02-18T22:31:58.697Z,37.22
2023-02-18T22:35:02.111Z,33.55
2023-02-18T22:38:05.022Z,35.15
2023-02-18T22:41:10.251Z,35.55
2023-02-18T22:44:15.521Z,35.80
2023-02-18T22:47:19.947Z,35.17
2023-02-18T22:50:22.774Z,34.85
2023-02-18T22:53:25.728Z,32.97
2023-02-18T22:56:30.218Z,32.80
2023-02-18T22:59:33.142Z,34.38
2023-02-18T23:02:37.425Z,36.90
2023-02-18T23:05:40.276Z,36.60
2023-02-18T23:08:43.372Z,32.30
2023-02-18T23:11:46.444Z,37.15
2023-02-18T23:14:49.293Z,34.15
2023-02-18T23:17:53.440Z,33.75
2023-02-18T23:21:21.332Z,31.30
2023-02-18T23:24:24.309Z,36.47
2023-02-18T23:27:28.002Z,32.65
2023-02-18T23:30:31.004Z,31.75
2023-02-18T23:33:35.296Z,32.33
2023-02-18T23:36:38.207Z,31.80
2023-02-18T23:39:41.426Z,33.30
2023-02-18T23:42:44.461Z,31.92
2023-02-18T23:45:47.347Z,31.88
2023-02-18T23:48:51.892Z,34.20
2023-02-18T23:51:56.744Z,30.63
2023-02-18T23:54:59.720Z,33.20
2023-02-18T23:58:02.579Z,32.08
